createdAt,value
2023-05-16T00:00:48.163Z,100067.41
2023-05-16T00:03:15.475Z,100067.25
2023-05-16T00:05:42.428Z,100061.81
2023-05-16T00:08:09.404Z,100060.16
2023-05-16T00:10:36.635Z,100061.13
2023-05-16T00:13:03.774Z,100050.31
2023-05-16T00:15:30.917Z,100056.56
2023-05-16T00:18:01.311Z,100055.25
2023-05-16T00:20:29.010Z,100045.69
2023-05-16T00:22:56.211Z,100043.94
2023-05-16T00:25:23.493Z,100052.09
2023-05-16T00:27:50.450Z,100051.75
2023-05-16T00:30:17.472Z,100046.88
2023-05-16T00:32:44.428Z,100050.63
2023-05-16T00:35:12.353Z,100049.16
2023-05-16T00:37:39.736Z,100050.59
2023-05-16T00:40:07.967Z,100049.78
2023-05-16T00:42:35.021Z,100053.34
2023-05-16T00:45:02.052Z,100049.81
2023-05-16T00:47:29.063Z,100050.91
2023-05-16T00:49:56.668Z,100049.03
2023-05-16T00:52:24.289Z,100049.38
2023-05-16T00:54:52.168Z,100034.97
2023-05-16T00:57:19.401Z,100034.34
2023-05-16T00:59:47.408Z,100041.56
2023-05-16T01:02:14.955Z,100041.75
2023-05-16T01:04:43.957Z,100047.81
2023-05-16T01:07:10.937Z,100050.44
2023-05-16T01:09:38.383Z,100052.09
2023-05-16T01:12:56.779Z,100056.34
2023-05-16T01:15:32.920Z,100061.06
2023-05-16T01:18:23.319Z,100068.06
2023-05-16T01:21:01.158Z,100060.94
2023-05-16T01:23:53.707Z,100049.81
2023-05-16T01:26:23.827Z,100055.03
2023-05-16T01:28:52.595Z,100064.84
2023-05-16T01:31:23.706Z,100066.63
2023-05-16T01:33:51.027Z,100067.47
2023-05-16T01:36:41.323Z,100063.88
2023-05-16T01:39:43.422Z,100065.00
2023-05-16T01:42:15.793Z,100069.03
2023-05-16T01:45:29.510Z,100063.38
2023-05-16T01:48:09.127Z,100059.75
2023-05-16T01:50:43.895Z,100062.88
2023-05-16T01:53:21.236Z,100068.44
2023-05-16T01:55:50.152Z,100074.25
2023-05-16T01:58:21.787Z,100069.06
2023-05-16T02:00:49.051Z,100064.97
2023-05-16T02:03:16.196Z,100070.03
2023-05-16T02:05:43.224Z,100072.97
2023-05-16T02:08:10.447Z,100069.38
2023-05-16T02:10:37.325Z,100075.81
2023-05-16T02:13:04.296Z,100077.78
2023-05-16T02:15:31.481Z,100072.91
2023-05-16T02:17:58.812Z,100073.25
2023-05-16T02:20:26.900Z,100070.91
2023-05-16T02:22:53.827Z,100067.97
2023-05-16T02:25:20.857Z,100073.34
2023-05-16T02:27:47.838Z,100082.94
2023-05-16T02:30:14.766Z,100084.09
2023-05-16T02:32:45.052Z,100078.06
2023-05-16T02:35:12.561Z,100082.88
2023-05-16T02:37:40.505Z,100081.84
2023-05-16T02:40:09.130Z,100088.00
2023-05-16T02:42:36.039Z,100082.16
2023-05-16T02:45:03.086Z,100087.03
2023-05-16T02:47:30.051Z,100087.03
2023-05-16T02:49:57.269Z,100091.91
2023-05-16T02:52:24.301Z,100080.13
2023-05-16T02:55:04.641Z,100085.19
2023-05-16T02:57:38.047Z,100085.56
2023-05-16T03:00:06.295Z,100088.13
2023-05-16T03:02:33.610Z,100085.41
2023-05-16T03:05:00.687Z,100090.78
2023-05-16T03:07:27.557Z,100090.22
2023-05-16T03:09:54.444Z,100095.53
2023-05-16T03:12:21.652Z,100097.22
2023-05-16T03:14:48.610Z,100107.13
2023-05-16T03:17:16.578Z,100103.97
2023-05-16T03:19:43.524Z,100108.69
2023-05-16T03:22:10.436Z,100104.22
2023-05-16T03:24:37.343Z,100101.19
2023-05-16T03:27:04.929Z,100105.34
2023-05-16T03:29:31.941Z,100106.50
2023-05-16T03:31:58.841Z,100103.00
2023-05-16T03:34:26.133Z,100101.81
2023-05-16T03:36:53.481Z,100101.59
2023-05-16T03:39:20.557Z,100105.97
2023-05-16T03:41:47.746Z,100105.69
2023-05-16T03:44:14.620Z,100104.16
2023-05-16T03:46:41.770Z,100110.47
2023-05-16T03:49:09.749Z,100115.53
2023-05-16T03:51:36.656Z,100128.97
2023-05-16T03:54:04.134Z,100122.22
2023-05-16T03:56:31.160Z,100129.28
2023-05-16T03:58:58.379Z,100130.69
2023-05-16T04:01:25.600Z,100133.16
2023-05-16T04:03:53.574Z,100139.28
2023-05-16T04:06:21.476Z,100141.16
2023-05-16T04:08:48.953Z,100142.06
2023-05-16T04:11:15.922Z,100145.84
2023-05-16T04:13:44.034Z,100148.53
2023-05-16T04:16:11.092Z,100149.03
2023-05-16T04:18:37.997Z,100150.34
2023-05-16T04:21:05.384Z,100142.78
2023-05-16T04:23:32.432Z,100139.91
2023-05-16T04:25:59.649Z,100150.84
2023-05-16T04:28:26.542Z,100141.72
2023-05-16T04:30:53.768Z,100149.41
2023-05-16T04:33:20.691Z,100143.25
2023-05-16T04:35:48.509Z,100139.66
2023-05-16T04:38:15.698Z,100144.78
2023-05-16T04:40:43.192Z,100140.22
2023-05-16T04:43:10.347Z,100136.03
2023-05-16T04:45:37.973Z,100145.06
2023-05-16T04:48:05.282Z,100144.88
2023-05-16T04:50:32.397Z,100155.03
2023-05-16T04:52:59.373Z,100160.09
2023-05-16T04:55:26.539Z,100158.28
2023-05-16T04:57:53.832Z,100156.41
2023-05-16T05:00:21.155Z,100163.06
2023-05-16T05:02:48.067Z,100162.84
2023-05-16T05:05:15.118Z,100159.91
2023-05-16T05:07:42.806Z,100161.94
2023-05-16T05:10:10.879Z,100165.22
2023-05-16T05:12:37.935Z,100171.31
2023-05-16T05:15:06.517Z,100168.22
2023-05-16T05:17:33.753Z,100171.31
2023-05-16T05:20:02.852Z,100183.81
2023-05-16T05:22:30.302Z,100178.00
2023-05-16T05:24:57.314Z,100187.09
2023-05-16T05:27:25.380Z,100179.50
2023-05-16T05:29:52.405Z,100191.72
2023-05-16T05:32:19.285Z,100174.59
2023-05-16T05:34:46.161Z,100178.97
2023-05-16T05:37:13.734Z,100177.69
2023-05-16T05:39:40.928Z,100182.03
2023-05-16T05:42:07.938Z,100197.66
2023-05-16T05:44:34.949Z,100201.75
2023-05-16T05:47:02.105Z,100194.41
2023-05-16T05:49:29.455Z,100189.19
2023-05-16T05:51:56.419Z,100188.66
2023-05-16T05:54:25.634Z,100193.94
2023-05-16T05:56:52.615Z,100199.47
2023-05-16T05:59:19.572Z,100194.47
2023-05-16T06:01:46.894Z,100196.53
2023-05-16T06:04:13.975Z,100197.72
2023-05-16T06:06:40.956Z,100192.38
2023-05-16T06:09:07.830Z,100195.34
2023-05-16T06:11:34.767Z,100199.59
2023-05-16T06:14:01.736Z,100202.53
2023-05-16T06:16:28.882Z,100204.81
2023-05-16T06:18:56.060Z,100214.63
2023-05-16T06:21:23.292Z,100211.34
2023-05-16T06:23:50.229Z,100208.78
2023-05-16T06:26:17.188Z,100215.63
2023-05-16T06:28:44.110Z,100213.66
2023-05-16T06:31:11.232Z,100211.56
2023-05-16T06:33:38.288Z,100208.44
2023-05-16T06:36:05.527Z,100212.34
2023-05-16T06:38:32.687Z,100212.66
2023-05-16T06:40:59.658Z,100218.38
2023-05-16T06:43:26.666Z,100222.22
2023-05-16T06:45:53.708Z,100224.34
2023-05-16T06:48:22.191Z,100231.16
2023-05-16T06:50:52.184Z,100234.72
2023-05-16T06:53:19.695Z,100232.13
2023-05-16T06:55:47.616Z,100229.56
2023-05-16T06:58:15.182Z,100240.56
2023-05-16T07:00:42.195Z,100246.09
2023-05-16T07:03:09.301Z,100261.28
2023-05-16T07:05:36.480Z,100263.06
2023-05-16T07:08:04.634Z,100261.09
2023-05-16T07:10:33.418Z,100257.50
2023-05-16T07:13:01.582Z,100258.81
2023-05-16T07:15:29.828Z,100266.25
2023-05-16T07:17:57.437Z,100261.59
2023-05-16T07:20:24.776Z,100272.13
2023-05-16T07:22:51.836Z,100265.41
2023-05-16T07:25:19.038Z,100251.84
2023-05-16T07:27:46.082Z,100254.97
2023-05-16T07:30:14.120Z,100263.75
2023-05-16T07:32:41.634Z,100271.13
2023-05-16T07:35:09.649Z,100256.91
2023-05-16T07:37:36.898Z,100258.63
2023-05-16T07:40:04.291Z,100246.41
2023-05-16T07:42:31.896Z,100266.63
2023-05-16T07:44:58.919Z,100271.88
2023-05-16T07:47:26.085Z,100262.88
2023-05-16T07:49:53.142Z,100259.84
2023-05-16T07:52:20.166Z,100265.66
2023-05-16T07:54:47.754Z,100273.53
2023-05-16T07:57:16.100Z,100272.88
2023-05-16T07:59:43.928Z,100278.16
2023-05-16T08:02:12.163Z,100280.13
2023-05-16T08:04:39.566Z,100287.34
2023-05-16T08:07:06.502Z,100281.47
2023-05-16T08:09:33.736Z,100271.31
2023-05-16T08:12:03.762Z,100275.75
2023-05-16T08:14:34.169Z,100287.69
2023-05-16T08:17:01.447Z,100279.81
2023-05-16T08:19:29.524Z,100285.72
2023-05-16T08:21:58.366Z,100278.88
2023-05-16T08:24:25.373Z,100294.53
2023-05-16T08:26:52.455Z,100284.13
2023-05-16T08:29:19.618Z,100272.69
2023-05-16T08:31:46.677Z,100276.16
2023-05-16T08:34:13.678Z,100261.66
2023-05-16T08:36:40.795Z,100273.09
2023-05-16T08:39:07.752Z,100267.16
2023-05-16T08:41:34.808Z,100277.78
2023-05-16T08:44:02.056Z,100288.56
2023-05-16T08:46:29.929Z,100289.31
2023-05-16T08:49:00.955Z,100295.84
2023-05-16T08:51:35.444Z,100305.25
2023-05-16T08:54:11.855Z,100305.16
2023-05-16T08:56:39.354Z,100312.22
2023-05-16T08:59:06.761Z,100308.63
2023-05-16T09:01:34.677Z,100322.66
2023-05-16T09:04:03.975Z,100324.00
2023-05-16T09:06:31.416Z,100325.22
2023-05-16T09:08:59.453Z,100321.13
2023-05-16T09:11:26.441Z,100320.59
2023-05-16T09:13:53.457Z,100319.94
2023-05-16T09:16:21.372Z,100320.28
2023-05-16T09:19:00.366Z,100320.69
2023-05-16T09:21:35.063Z,100312.28
2023-05-16T09:24:06.595Z,100333.59
2023-05-16T09:26:36.083Z,100341.47
2023-05-16T09:29:11.108Z,100336.38
2023-05-16T09:31:38.646Z,100335.84
2023-05-16T09:34:12.017Z,100330.84
2023-05-16T09:36:39.704Z,100323.56
2023-05-16T09:39:08.261Z,100334.59
2023-05-16T09:41:36.459Z,100341.03
2023-05-16T09:44:07.154Z,100334.94
2023-05-16T09:46:38.757Z,100344.63
2023-05-16T09:49:06.322Z,100347.34
2023-05-16T09:51:34.509Z,100334.22
2023-05-16T09:54:01.643Z,100339.25
2023-05-16T09:56:30.092Z,100340.97
2023-05-16T09:58:57.142Z,100339.50
2023-05-16T10:01:25.664Z,100340.75
2023-05-16T10:03:52.863Z,100340.31
2023-05-16T10:06:20.624Z,100335.94
2023-05-16T10:08:48.692Z,100351.00
2023-05-16T10:11:17.399Z,100342.78
2023-05-16T10:13:50.371Z,100351.56
2023-05-16T10:16:18.982Z,100359.91
2023-05-16T10:18:46.104Z,100358.25
2023-05-16T10:21:18.153Z,100362.41
2023-05-16T10:23:49.791Z,100358.34
2023-05-16T10:26:18.365Z,100368.19
2023-05-16T10:28:45.910Z,100368.28
2023-05-16T10:31:14.620Z,100369.84
2023-05-16T10:33:42.242Z,100367.97
2023-05-16T10:36:11.943Z,100369.41
2023-05-16T10:38:40.382Z,100372.19
2023-05-16T10:41:08.744Z,100385.28
2023-05-16T10:43:36.689Z,100389.34
2023-05-16T10:46:08.060Z,100386.34
2023-05-16T10:48:41.192Z,100381.28
2023-05-16T10:51:23.437Z,100386.81
2023-05-16T10:54:12.828Z,100397.72
2023-05-16T10:56:39.889Z,100399.00
2023-05-16T10:59:24.915Z,100390.66
2023-05-16T11:01:56.715Z,100404.19
2023-05-16T11:04:23.998Z,100387.09
2023-05-16T11:06:53.326Z,100395.13
2023-05-16T11:09:24.363Z,100380.75
2023-05-16T11:12:04.086Z,100392.22
2023-05-16T11:14:47.578Z,100391.03
2023-05-16T11:17:25.185Z,100398.41
2023-05-16T11:19:59.790Z,100404.81
2023-05-16T11:22:29.752Z,100406.50
2023-05-16T11:25:08.003Z,100410.50
2023-05-16T11:27:46.571Z,100404.72
2023-05-16T11:30:19.334Z,100402.53
2023-05-16T11:32:48.358Z,100405.72
2023-05-16T11:35:17.358Z,100366.34
2023-05-16T11:37:45.674Z,100395.50
2023-05-16T11:40:14.666Z,100398.28
2023-05-16T11:42:50.438Z,100384.75
2023-05-16T11:45:20.194Z,100410.09
2023-05-16T11:47:49.094Z,100397.59
2023-05-16T11:50:19.695Z,100417.41
2023-05-16T11:52:57.508Z,100401.31
2023-05-16T11:55:41.300Z,100418.06
2023-05-16T11:58:10.288Z,100427.44
2023-05-16T12:00:37.382Z,100417.84
2023-05-16T12:03:06.483Z,100425.97
2023-05-16T12:05:35.277Z,100423.75
2023-05-16T12:08:05.610Z,100423.50
2023-05-16T12:10:36.135Z,100429.25
2023-05-16T12:13:03.919Z,100433.63
2023-05-16T12:15:31.517Z,100434.25
2023-05-16T12:17:59.204Z,100444.84
2023-05-16T12:20:26.853Z,100447.78
2023-05-16T12:22:58.507Z,100441.00
2023-05-16T12:25:29.899Z,100451.84
2023-05-16T12:28:03.063Z,100453.50
2023-05-16T12:30:32.448Z,100451.88
2023-05-16T12:33:02.304Z,100445.84
2023-05-16T12:35:33.374Z,100435.72
2023-05-16T12:38:04.301Z,100432.09
2023-05-16T12:40:31.682Z,100443.19
2023-05-16T12:42:59.860Z,100446.16
2023-05-16T12:45:30.008Z,100439.81
2023-05-16T12:47:57.111Z,100439.25
2023-05-16T12:50:27.225Z,100429.56
2023-05-16T12:52:59.336Z,100419.88
2023-05-16T12:55:26.985Z,100415.63
2023-05-16T12:57:57.777Z,100403.94
2023-05-16T13:00:25.297Z,100405.28
2023-05-16T13:02:54.636Z,100414.06
2023-05-16T13:05:23.406Z,100396.78
2023-05-16T13:07:54.486Z,100421.28
2023-05-16T13:10:21.522Z,100409.16
2023-05-16T13:12:49.503Z,100422.34
2023-05-16T13:15:16.564Z,100421.22
2023-05-16T13:17:48.491Z,100413.91
2023-05-16T13:20:15.835Z,100428.88
2023-05-16T13:22:45.452Z,100412.94
2023-05-16T13:25:14.568Z,100416.47
2023-05-16T13:27:41.795Z,100427.38
2023-05-16T13:30:09.441Z,100418.44
2023-05-16T13:32:36.590Z,100430.06
2023-05-16T13:35:04.160Z,100414.88
2023-05-16T13:37:31.914Z,100407.59
2023-05-16T13:39:59.016Z,100403.66
2023-05-16T13:42:26.113Z,100415.34
2023-05-16T13:44:53.158Z,100412.81
2023-05-16T13:47:20.133Z,100402.50
2023-05-16T13:49:47.715Z,100392.25
2023-05-16T13:52:14.992Z,100389.50
2023-05-16T13:54:42.046Z,100392.34
2023-05-16T13:57:09.107Z,100378.16
2023-05-16T14:02:06.145Z,100388.47
2023-05-16T14:04:33.141Z,100392.19
2023-05-16T14:07:00.050Z,100396.78
2023-05-16T14:09:27.249Z,100403.56
2023-05-16T14:11:54.278Z,100408.47
2023-05-16T14:14:21.414Z,100402.75
2023-05-16T14:16:49.611Z,100392.31
2023-05-16T14:19:19.432Z,100396.59
2023-05-16T14:21:47.793Z,100405.81
2023-05-16T14:24:14.805Z,100403.56
2023-05-16T14:26:41.811Z,100400.31
2023-05-16T14:29:09.000Z,100380.34
2023-05-16T14:31:38.684Z,100384.44
2023-05-16T14:34:05.917Z,100382.00
2023-05-16T14:36:33.891Z,100382.31
2023-05-16T14:39:00.897Z,100377.38
2023-05-16T14:41:27.893Z,100374.28
2023-05-16T14:43:56.179Z,100376.38
2023-05-16T14:46:23.351Z,100366.22
2023-05-16T14:48:51.091Z,100368.13
2023-05-16T14:51:18.197Z,100362.66
2023-05-16T14:53:46.988Z,100361.47
2023-05-16T14:56:14.538Z,100353.69
2023-05-16T14:58:42.541Z,100363.16
2023-05-16T15:01:09.741Z,100361.22
2023-05-16T15:03:53.756Z,100353.69
2023-05-16T15:06:22.493Z,100337.91
2023-05-16T15:08:49.515Z,100340.97
2023-05-16T15:11:16.542Z,100331.06
2023-05-16T15:13:43.609Z,100328.34
2023-05-16T15:16:10.807Z,100319.63
2023-05-16T15:18:37.977Z,100310.69
2023-05-16T15:21:05.080Z,100319.09
2023-05-16T15:23:32.111Z,100309.50
2023-05-16T15:25:59.213Z,100308.31
2023-05-16T15:28:26.263Z,100312.97
2023-05-16T15:30:53.315Z,100299.00
2023-05-16T15:33:20.508Z,100293.75
2023-05-16T15:35:48.436Z,100268.69
2023-05-16T15:38:15.534Z,100264.81
2023-05-16T15:40:42.663Z,100232.09
2023-05-16T15:43:09.683Z,100250.38
2023-05-16T15:45:39.897Z,100240.88
2023-05-16T15:48:07.780Z,100228.19
2023-05-16T15:50:35.088Z,100242.34
2023-05-16T15:53:02.262Z,100231.84
2023-05-16T15:55:29.380Z,100229.22
2023-05-16T15:57:58.509Z,100218.91
2023-05-16T16:00:26.359Z,100222.25
2023-05-16T16:02:53.676Z,100213.69
2023-05-16T16:05:20.807Z,100226.31
2023-05-16T16:07:47.777Z,100229.81
2023-05-16T16:10:14.785Z,100224.00
2023-05-16T16:12:41.805Z,100226.41
2023-05-16T16:15:10.985Z,100234.88
2023-05-16T16:17:38.109Z,100226.06
2023-05-16T16:20:05.880Z,100249.38
2023-05-16T16:22:32.957Z,100245.84
2023-05-16T16:25:02.604Z,100221.84
2023-05-16T16:27:29.646Z,100245.19
2023-05-16T16:29:56.597Z,100247.53
2023-05-16T16:32:23.681Z,100258.25
2023-05-16T16:34:50.710Z,100247.41
2023-05-16T16:37:17.803Z,100264.06
2023-05-16T16:39:44.809Z,100250.03
2023-05-16T16:42:11.960Z,100247.03
2023-05-16T16:44:38.991Z,100256.97
2023-05-16T16:47:06.236Z,100264.94
2023-05-16T16:49:33.181Z,100254.25
2023-05-16T16:52:00.299Z,100258.91
2023-05-16T16:54:28.131Z,100274.19
2023-05-16T16:56:56.422Z,100272.44
2023-05-16T16:59:23.638Z,100266.34
2023-05-16T17:01:50.818Z,100275.56
2023-05-16T17:04:17.832Z,100282.50
2023-05-16T17:06:46.453Z,100284.59
2023-05-16T17:09:17.982Z,100291.69
2023-05-16T17:11:47.142Z,100288.69
2023-05-16T17:14:15.871Z,100292.69
2023-05-16T17:16:43.005Z,100306.69
2023-05-16T17:19:11.242Z,100287.66
2023-05-16T17:21:40.596Z,100290.53
2023-05-16T17:24:08.117Z,100292.19
2023-05-16T17:26:35.805Z,100305.75
2023-05-16T17:29:04.897Z,100298.88
2023-05-16T17:31:31.983Z,100300.19
2023-05-16T17:33:58.898Z,100314.81
2023-05-16T17:36:25.940Z,100303.06
2023-05-16T17:38:52.922Z,100298.72
2023-05-16T17:41:22.096Z,100288.56
2023-05-16T17:43:49.079Z,100291.72
2023-05-16T17:46:16.024Z,100283.09
2023-05-16T17:48:43.991Z,100292.25
2023-05-16T17:51:10.996Z,100290.53
2023-05-16T17:53:38.475Z,100291.16
2023-05-16T17:56:05.629Z,100293.41
2023-05-16T17:58:32.617Z,100297.50
2023-05-16T18:00:59.718Z,100301.00
2023-05-16T18:03:28.075Z,100310.44
2023-05-16T18:05:55.874Z,100313.19
2023-05-16T18:08:23.190Z,100315.25
2023-05-16T18:10:51.959Z,100324.41
2023-05-16T18:13:21.934Z,100331.47
2023-05-16T18:15:49.014Z,100336.56
2023-05-16T18:18:17.552Z,100333.28
2023-05-16T18:20:45.959Z,100340.28
2023-05-16T18:23:13.085Z,100339.16
2023-05-16T18:25:40.035Z,100358.75
2023-05-16T18:28:07.739Z,100369.69
2023-05-16T18:30:37.685Z,100370.00
2023-05-16T18:33:06.597Z,100379.50
2023-05-16T18:35:33.653Z,100372.75
2023-05-16T18:38:01.328Z,100386.84
2023-05-16T18:40:28.468Z,100392.53
2023-05-16T18:42:56.718Z,100399.59
2023-05-16T18:45:26.332Z,100410.03
2023-05-16T18:47:53.691Z,100418.13
2023-05-16T18:50:21.230Z,100423.03
2023-05-16T18:52:48.435Z,100428.06
2023-05-16T18:55:15.886Z,100438.28
2023-05-16T18:57:44.067Z,100442.47
2023-05-16T19:00:12.080Z,100447.06
2023-05-16T19:02:42.556Z,100457.69
2023-05-16T19:05:10.783Z,100466.44
2023-05-16T19:07:38.086Z,100470.22
2023-05-16T19:10:05.963Z,100481.78
2023-05-16T19:12:32.944Z,100487.19
2023-05-16T19:14:59.975Z,100485.53
2023-05-16T19:17:26.963Z,100494.91
2023-05-16T19:19:55.203Z,100510.94
2023-05-16T19:22:22.168Z,100515.78
2023-05-16T19:24:49.124Z,100525.31
2023-05-16T19:27:16.958Z,100525.34
2023-05-16T19:29:44.105Z,100525.75
2023-05-16T19:32:11.584Z,100526.44
2023-05-16T19:34:38.530Z,100536.19
2023-05-16T19:37:06.684Z,100543.72
2023-05-16T19:39:33.722Z,100548.19
2023-05-16T19:42:07.089Z,100563.19
2023-05-16T19:44:35.273Z,100561.56
2023-05-16T19:47:02.763Z,100570.19
2023-05-16T19:49:32.077Z,100585.06
2023-05-16T19:52:02.974Z,100595.50
2023-05-16T19:54:30.356Z,100606.84
2023-05-16T19:56:57.286Z,100612.44
2023-05-16T19:59:24.389Z,100624.78
2023-05-16T20:01:51.362Z,100616.97
2023-05-16T20:04:19.471Z,100618.47
2023-05-16T20:06:46.955Z,100621.72
2023-05-16T20:09:14.624Z,100621.53
2023-05-16T20:11:41.763Z,100622.50
2023-05-16T20:14:08.816Z,100627.00
2023-05-16T20:16:35.801Z,100628.22
2023-05-16T20:19:05.804Z,100636.72
2023-05-16T20:21:32.906Z,100630.16
2023-05-16T20:24:00.376Z,100633.19
2023-05-16T20:26:27.795Z,100641.94
2023-05-16T20:28:54.998Z,100637.06
2023-05-16T20:31:22.284Z,100638.78
2023-05-16T20:33:50.228Z,100634.25
2023-05-16T20:36:17.385Z,100624.09
2023-05-16T20:38:44.299Z,100632.75
2023-05-16T20:41:11.445Z,100628.06
2023-05-16T20:43:38.410Z,100624.22
2023-05-16T20:46:05.657Z,100625.75
2023-05-16T20:48:32.645Z,100637.81
2023-05-16T20:51:01.261Z,100632.59
2023-05-16T20:53:28.245Z,100627.16
2023-05-16T20:55:55.223Z,100640.34
2023-05-16T20:58:22.212Z,100641.47
2023-05-16T21:00:49.210Z,100646.44
2023-05-16T21:03:16.266Z,100654.09
2023-05-16T21:05:43.228Z,100660.13
2023-05-16T21:08:10.486Z,100662.88
2023-05-16T21:10:37.540Z,100664.34
2023-05-16T21:13:04.512Z,100674.75
2023-05-16T21:15:31.488Z,100674.84
2023-05-16T21:17:58.493Z,100675.97
2023-05-16T21:20:25.579Z,100674.84
2023-05-16T21:22:52.477Z,100681.41
2023-05-16T21:25:19.472Z,100682.19
2023-05-16T21:27:46.401Z,100695.25
2023-05-16T21:30:14.019Z,100706.16
2023-05-16T21:32:40.987Z,100712.34
2023-05-16T21:35:08.945Z,100717.53
2023-05-16T21:37:35.947Z,100724.84
2023-05-16T21:40:02.975Z,100735.53
2023-05-16T21:42:29.912Z,100739.69
2023-05-16T21:44:56.921Z,100739.66
2023-05-16T21:47:23.884Z,100738.81
2023-05-16T21:49:51.830Z,100736.41
2023-05-16T21:52:19.036Z,100743.13
2023-05-16T21:54:51.412Z,100746.59
2023-05-16T21:57:19.550Z,100744.16
2023-05-16T21:59:50.535Z,100747.31
2023-05-16T22:02:22.632Z,100763.25
2023-05-16T22:04:53.489Z,100769.22
2023-05-16T22:07:20.714Z,100768.84
2023-05-16T22:09:50.926Z,100769.19
2023-05-16T22:12:17.898Z,100763.53
2023-05-16T22:14:45.028Z,100767.69
2023-05-16T22:17:11.959Z,100768.38
2023-05-16T22:19:39.641Z,100765.03
2023-05-16T22:22:06.826Z,100751.91
2023-05-16T22:24:34.876Z,100759.09
2023-05-16T22:27:01.833Z,100763.63
2023-05-16T22:29:29.704Z,100765.56
2023-05-16T22:31:56.761Z,100763.72
2023-05-16T22:34:23.842Z,100763.22
2023-05-16T22:36:50.733Z,100771.66
2023-05-16T22:39:17.655Z,100771.13
2023-05-16T22:41:44.660Z,100765.81
2023-05-16T22:44:11.649Z,100776.72
2023-05-16T22:46:38.588Z,100781.94
2023-05-16T22:49:05.630Z,100778.53
2023-05-16T22:51:32.587Z,100786.13
2023-05-16T22:53:59.653Z,100787.84
2023-05-16T22:56:26.552Z,100788.50
2023-05-16T22:58:53.561Z,100793.22
2023-05-16T23:01:20.572Z,100812.19
2023-05-16T23:03:47.573Z,100802.41
2023-05-16T23:06:14.562Z,100802.06
2023-05-16T23:08:42.712Z,100800.19
2023-05-16T23:11:12.050Z,100798.28
2023-05-16T23:13:39.157Z,100800.44
2023-05-16T23:16:06.799Z,100813.50
2023-05-16T23:18:33.841Z,100805.25
2023-05-16T23:21:00.855Z,100803.00
2023-05-16T23:23:27.825Z,100798.78
2023-05-16T23:25:54.876Z,100803.22
2023-05-16T23:28:21.925Z,100802.28
2023-05-16T23:30:48.982Z,100813.38
2023-05-16T23:33:16.011Z,100818.69
2023-05-16T23:35:43.601Z,100813.16
2023-05-16T23:38:10.596Z,100817.50
2023-05-16T23:40:37.749Z,100822.13
2023-05-16T23:43:04.705Z,100832.81
2023-05-16T23:45:31.766Z,100832.94
2023-05-16T23:47:59.208Z,100828.13
2023-05-16T23:50:26.336Z,100829.38
2023-05-16T23:52:53.274Z,100833.75
2023-05-16T23:55:20.414Z,100829.19
2023-05-16T23:57:47.384Z,100840.59
